createdAt,value
2019-03-18T00:01:09.187Z,96840.70
2019-03-18T00:04:15.712Z,96832.03
2019-03-18T00:07:22.107Z,96846.22
2019-03-18T00:10:28.381Z,96852.17
2019-03-18T00:13:35.247Z,96859.05
2019-03-18T00:16:42.011Z,96854.97
2019-03-18T00:19:48.715Z,96860.91
2019-03-18T00:22:55.333Z,96864.49
2019-03-18T00:26:02.076Z,96867.58
2019-03-18T00:29:08.437Z,96865.97
2019-03-18T00:32:14.954Z,96862.39
2019-03-18T00:35:21.479Z,96858.55
2019-03-18T00:38:28.298Z,96866.34
2019-03-18T00:41:37.977Z,96868.52
2019-03-18T00:44:44.336Z,96870.36
2019-03-18T00:47:50.761Z,96857.98
2019-03-18T00:50:57.161Z,96858.31
2019-03-18T00:54:03.516Z,96874.61
2019-03-18T00:57:10.107Z,96880.80
2019-03-18T01:00:16.996Z,96878.98
2019-03-18T01:03:23.184Z,96890.20
2019-03-18T01:06:29.803Z,96881.86
2019-03-18T01:09:36.143Z,96876.66
2019-03-18T01:12:43.023Z,96886.84
2019-03-18T01:15:49.607Z,96888.34
2019-03-18T01:18:56.356Z,96888.98
2019-03-18T01:22:03.410Z,96896.55
2019-03-18T01:25:10.088Z,96903.22
2019-03-18T01:28:16.591Z,96896.48
2019-03-18T01:31:24.122Z,96904.49
2019-03-18T01:34:31.188Z,96904.59
2019-03-18T01:37:39.287Z,96912.94
2019-03-18T01:40:45.858Z,96920.49
2019-03-18T01:43:52.402Z,96928.22
2019-03-18T01:46:58.951Z,96923.90
2019-03-18T01:50:06.466Z,96934.09
2019-03-18T01:53:12.833Z,96934.58
2019-03-18T01:56:19.182Z,96931.30
2019-03-18T01:59:25.767Z,96939.27
2019-03-18T02:02:32.296Z,96937.81
2019-03-18T02:05:38.539Z,96930.20
2019-03-18T02:08:45.195Z,96924.46
2019-03-18T02:11:52.254Z,96924.78
2019-03-18T02:14:58.505Z,96922.58
2019-03-18T02:18:05.459Z,96921.27
2019-03-18T02:21:12.209Z,96918.45
2019-03-18T02:24:18.977Z,96912.00
2019-03-18T02:27:25.427Z,96907.09
2019-03-18T02:30:31.980Z,96913.45
2019-03-18T02:33:38.309Z,96914.85
2019-03-18T02:36:45.220Z,96913.61
2019-03-18T02:39:51.969Z,96922.86
2019-03-18T02:43:00.011Z,96914.87
2019-03-18T02:46:10.337Z,96908.55
2019-03-18T02:49:14.327Z,96907.08
2019-03-18T02:52:20.445Z,96907.66
2019-03-18T02:55:27.251Z,96913.39
2019-03-18T02:58:33.801Z,96916.98
2019-03-18T03:01:40.451Z,96914.80
2019-03-18T03:04:47.032Z,96915.70
2019-03-18T03:07:53.405Z,96912.20
2019-03-18T03:10:59.918Z,96924.75
2019-03-18T03:14:06.493Z,96938.47
2019-03-18T03:17:12.969Z,96942.45
2019-03-18T03:20:19.482Z,96950.60
2019-03-18T03:23:26.131Z,96937.86
2019-03-18T03:26:32.486Z,96949.27
2019-03-18T03:29:39.354Z,96945.19
2019-03-18T03:32:46.103Z,96956.09
2019-03-18T03:35:54.293Z,96959.34
2019-03-18T03:39:01.032Z,96959.41
2019-03-18T03:42:08.921Z,96963.06
2019-03-18T03:45:15.983Z,96956.17
2019-03-18T03:48:22.563Z,96954.66
2019-03-18T03:51:29.159Z,96947.80
2019-03-18T03:54:35.571Z,96943.48
2019-03-18T03:57:41.851Z,96955.38
2019-03-18T04:00:48.930Z,96956.77
2019-03-18T04:03:55.019Z,96962.83
2019-03-18T04:07:02.671Z,96966.91
2019-03-18T04:10:08.953Z,96967.75
2019-03-18T04:13:16.037Z,96959.08
2019-03-18T04:16:22.491Z,96953.02
2019-03-18T04:19:28.889Z,96957.58
2019-03-18T04:22:35.654Z,96972.01
2019-03-18T04:25:42.202Z,96966.25
2019-03-18T04:28:48.726Z,96962.36
2019-03-18T04:31:54.931Z,96959.15
2019-03-18T04:35:01.545Z,96966.42
2019-03-18T04:38:07.838Z,96969.13
2019-03-18T04:41:15.242Z,96981.09
2019-03-18T04:44:21.890Z,96987.83
2019-03-18T04:47:28.519Z,96990.81
2019-03-18T04:50:35.082Z,96996.97
2019-03-18T04:53:41.321Z,96998.11
2019-03-18T04:56:47.822Z,97011.06
2019-03-18T04:59:54.217Z,97007.36
2019-03-18T05:03:00.883Z,97018.72
2019-03-18T05:06:07.537Z,97018.45
2019-03-18T05:09:13.822Z,97024.81
2019-03-18T05:12:21.138Z,97027.27
2019-03-18T05:15:28.446Z,97027.38
2019-03-18T05:18:36.682Z,97030.92
2019-03-18T05:21:43.252Z,97039.20
2019-03-18T05:24:49.909Z,97052.63
2019-03-18T05:27:56.543Z,97054.30
2019-03-18T05:31:03.469Z,97053.83
2019-03-18T05:34:09.912Z,97043.79
2019-03-18T05:37:16.788Z,97031.41
2019-03-18T05:40:22.957Z,97025.19
2019-03-18T05:43:29.767Z,97030.22
2019-03-18T05:46:36.615Z,97034.45
2019-03-18T05:49:42.936Z,97034.32
2019-03-18T05:52:49.197Z,97031.56
2019-03-18T05:55:56.092Z,97027.11
2019-03-18T05:59:02.730Z,97027.06
2019-03-18T06:02:09.861Z,97040.64
2019-03-18T06:05:16.299Z,97045.64
2019-03-18T06:08:22.850Z,97036.09
2019-03-18T06:11:29.367Z,97055.83
2019-03-18T06:14:36.128Z,97052.58
2019-03-18T06:17:52.436Z,97057.17
2019-03-18T06:20:50.940Z,97065.36
2019-03-18T06:23:57.428Z,97070.58
2019-03-18T06:27:04.140Z,97077.78
2019-03-18T06:30:11.333Z,97075.13
2019-03-18T06:33:17.878Z,97102.29
2019-03-18T06:36:24.428Z,97109.34
2019-03-18T06:39:30.853Z,97108.97
2019-03-18T06:42:37.490Z,97106.09
2019-03-18T06:45:44.133Z,97104.88
2019-03-18T06:48:50.912Z,97102.09
2019-03-18T06:51:57.345Z,97088.58
2019-03-18T06:55:04.419Z,97093.98
2019-03-18T06:58:11.207Z,97079.26
2019-03-18T07:01:18.405Z,97088.67
2019-03-18T07:04:24.736Z,97086.84
2019-03-18T07:07:31.254Z,97093.55
2019-03-18T07:10:38.123Z,97098.33
2019-03-18T07:13:44.902Z,97098.88
2019-03-18T07:16:51.552Z,97114.25
2019-03-18T07:19:58.429Z,97124.62
2019-03-18T07:23:06.040Z,97123.84
2019-03-18T07:26:13.350Z,97121.03
2019-03-18T07:29:20.678Z,97125.52
2019-03-18T07:32:27.144Z,97139.08
2019-03-18T07:35:33.857Z,97145.98
2019-03-18T07:38:40.577Z,97149.31
2019-03-18T07:41:47.861Z,97157.91
2019-03-18T07:44:54.379Z,97166.98
2019-03-18T07:48:01.304Z,97170.56
2019-03-18T07:51:07.973Z,97179.59
2019-03-18T07:54:14.842Z,97184.55
2019-03-18T07:57:21.194Z,97181.80
2019-03-18T08:00:27.811Z,97190.95
2019-03-18T08:03:36.451Z,97190.66
2019-03-18T08:06:42.182Z,97198.27
2019-03-18T08:09:49.124Z,97203.87
2019-03-18T08:12:55.791Z,97205.70
2019-03-18T08:16:02.798Z,97205.83
2019-03-18T08:19:09.504Z,97213.38
2019-03-18T08:22:15.853Z,97218.15
2019-03-18T08:25:23.065Z,97215.78
2019-03-18T08:28:29.316Z,97229.39
2019-03-18T08:31:37.068Z,97237.14
2019-03-18T08:34:43.896Z,97234.02
2019-03-18T08:37:50.759Z,97239.25
2019-03-18T08:40:57.663Z,97235.20
2019-03-18T08:44:04.168Z,97242.54
2019-03-18T08:47:10.624Z,97241.46
2019-03-18T08:50:17.223Z,97241.79
2019-03-18T08:53:24.114Z,97246.92
2019-03-18T08:56:30.823Z,97253.81
2019-03-18T08:59:37.936Z,97254.05
2019-03-18T09:02:44.360Z,97268.98
2019-03-18T09:05:52.014Z,97267.23
2019-03-18T09:08:58.607Z,97267.22
2019-03-18T09:12:06.970Z,97261.70
2019-03-18T09:15:13.641Z,97272.14
2019-03-18T09:18:20.563Z,97275.56
2019-03-18T09:21:27.503Z,97280.44
2019-03-18T09:24:34.771Z,97283.17
2019-03-18T09:27:41.779Z,97290.67
2019-03-18T09:30:48.336Z,97297.53
2019-03-18T09:33:55.303Z,97300.81
2019-03-18T09:37:02.262Z,97310.55
2019-03-18T09:40:09.167Z,97311.67
2019-03-18T09:43:15.876Z,97316.91
2019-03-18T09:46:22.977Z,97314.17
2019-03-18T09:49:29.510Z,97311.00
2019-03-18T09:52:37.960Z,97320.85
2019-03-18T09:55:44.594Z,97322.61
2019-03-18T09:58:51.048Z,97318.20
2019-03-18T10:01:57.351Z,97312.22
2019-03-18T10:05:04.747Z,97304.03
2019-03-18T10:08:11.016Z,97304.03
2019-03-18T10:11:17.865Z,97316.81
2019-03-18T10:14:24.562Z,97326.52
2019-03-18T10:17:31.082Z,97323.27
2019-03-18T10:20:37.559Z,97326.64
2019-03-18T10:23:44.435Z,97328.73
2019-03-18T10:26:51.040Z,97328.02
2019-03-18T10:29:59.713Z,97327.75
2019-03-18T10:33:06.313Z,97326.92
2019-03-18T10:36:13.718Z,97329.20
2019-03-18T10:39:20.270Z,97324.78
2019-03-18T10:42:27.176Z,97324.06
2019-03-18T10:45:33.895Z,97332.14
2019-03-18T10:48:40.702Z,97334.30
2019-03-18T10:51:48.426Z,97330.00
2019-03-18T10:54:55.677Z,97329.59
2019-03-18T10:58:02.495Z,97346.41
2019-03-18T11:01:09.726Z,97345.67
2019-03-18T11:04:15.807Z,97344.31
2019-03-18T11:07:22.195Z,97346.09
2019-03-18T11:10:28.974Z,97330.48
2019-03-18T11:13:35.732Z,97336.30
2019-03-18T11:16:42.391Z,97337.19
2019-03-18T11:19:57.980Z,97342.72
2019-03-18T11:22:57.387Z,97331.00
2019-03-18T11:26:03.942Z,97343.00
2019-03-18T11:29:10.971Z,97338.08
2019-03-18T11:32:17.025Z,97342.26
2019-03-18T11:35:23.352Z,97348.21
2019-03-18T11:38:31.965Z,97352.18
2019-03-18T11:41:39.258Z,97348.27
2019-03-18T11:44:45.748Z,97351.03
2019-03-18T11:47:52.587Z,97349.04
2019-03-18T11:50:59.257Z,97357.95
2019-03-18T11:54:06.208Z,97354.78
2019-03-18T11:57:13.245Z,97352.76
2019-03-18T12:00:20.125Z,97358.69
2019-03-18T12:03:26.589Z,97355.34
2019-03-18T12:06:33.396Z,97353.31
2019-03-18T12:09:40.936Z,97364.60
2019-03-18T12:12:48.676Z,97391.19
2019-03-18T12:15:55.641Z,97396.48
2019-03-18T12:19:02.462Z,97392.80
2019-03-18T12:22:08.951Z,97400.38
2019-03-18T12:25:15.694Z,97387.66
2019-03-18T12:28:22.552Z,97379.35
2019-03-18T12:31:30.450Z,97383.28
2019-03-18T12:34:37.282Z,97393.09
2019-03-18T12:37:44.488Z,97388.86
2019-03-18T12:40:51.418Z,97392.68
2019-03-18T12:43:58.155Z,97390.17
2019-03-18T12:47:05.382Z,97389.64
2019-03-18T12:50:16.297Z,97389.66
2019-03-18T12:53:22.978Z,97379.00
2019-03-18T12:56:29.413Z,97373.63
2019-03-18T12:59:36.421Z,97360.16
2019-03-18T13:02:42.720Z,97361.63
2019-03-18T13:05:49.410Z,97365.08
2019-03-18T13:08:56.454Z,97361.45
2019-03-18T13:12:03.371Z,97353.14
2019-03-18T13:15:11.481Z,97349.72
2019-03-18T13:18:18.601Z,97349.38
2019-03-18T13:21:26.054Z,97361.57
2019-03-18T13:24:32.916Z,97353.74
2019-03-18T13:27:39.706Z,97365.53
2019-03-18T13:30:46.553Z,97356.34
2019-03-18T13:33:53.331Z,97353.22
2019-03-18T13:36:59.665Z,97352.03
2019-03-18T13:40:08.078Z,97338.67
2019-03-18T13:43:14.613Z,97335.78
2019-03-18T13:46:21.483Z,97357.50
2019-03-18T13:49:28.172Z,97349.23
2019-03-18T13:52:35.450Z,97356.18
2019-03-18T13:55:42.748Z,97362.15
2019-03-18T13:58:50.245Z,97371.13
2019-03-18T14:01:57.315Z,97374.34
2019-03-18T14:05:06.578Z,97381.13
2019-03-18T14:08:14.804Z,97404.59
2019-03-18T14:11:21.767Z,97423.47
2019-03-18T14:14:28.512Z,97478.08
2019-03-18T14:17:35.033Z,97491.73
2019-03-18T14:20:41.732Z,97473.09
2019-03-18T14:23:48.630Z,97466.30
2019-03-18T14:26:55.453Z,97453.13
2019-03-18T14:30:02.339Z,97454.78
2019-03-18T14:33:08.787Z,97444.04
2019-03-18T14:36:15.218Z,97440.70
2019-03-18T14:39:21.831Z,97427.80
2019-03-18T14:42:28.979Z,97422.66
2019-03-18T14:45:35.969Z,97427.82
2019-03-18T14:48:42.563Z,97419.09
2019-03-18T14:51:49.027Z,97418.87
2019-03-18T14:54:55.539Z,97415.09
2019-03-18T14:58:05.368Z,97407.39
2019-03-18T15:01:12.388Z,97420.05
2019-03-18T15:04:18.703Z,97432.72
2019-03-18T15:07:25.803Z,97433.75
2019-03-18T15:10:32.757Z,97441.82
2019-03-18T15:13:39.872Z,97436.98
2019-03-18T15:16:47.112Z,97445.84
2019-03-18T15:19:54.077Z,97446.44
2019-03-18T15:23:00.650Z,97446.20
2019-03-18T15:26:10.622Z,97447.36
2019-03-18T15:29:20.988Z,97456.73
2019-03-18T15:32:28.165Z,97454.55
2019-03-18T15:35:34.796Z,97453.54
2019-03-18T15:38:42.076Z,97460.77
2019-03-18T15:41:48.865Z,97465.69
2019-03-18T15:44:55.465Z,97481.58
2019-03-18T15:48:02.103Z,97495.06
2019-03-18T15:51:09.309Z,97490.27
2019-03-18T15:54:16.030Z,97486.51
2019-03-18T15:57:29.473Z,97486.59
2019-03-18T16:00:31.342Z,97479.84
2019-03-18T16:03:38.121Z,97481.91
2019-03-18T16:06:44.787Z,97485.78
2019-03-18T16:09:51.710Z,97493.00
2019-03-18T16:12:58.411Z,97493.48
2019-03-18T16:16:04.913Z,97489.91
2019-03-18T16:19:11.641Z,97492.25
2019-03-18T16:22:23.364Z,97497.52
2019-03-18T16:25:26.812Z,97496.94
2019-03-18T16:28:33.152Z,97497.59
2019-03-18T16:31:42.254Z,97502.44
2019-03-18T16:34:50.084Z,97502.71
2019-03-18T16:37:56.657Z,97511.68
2019-03-18T16:41:03.488Z,97517.07
2019-03-18T16:44:10.071Z,97531.03
2019-03-18T16:47:17.231Z,97529.67
2019-03-18T16:50:24.337Z,97535.98
2019-03-18T16:53:31.162Z,97541.58
2019-03-18T16:56:38.330Z,97546.02
2019-03-18T16:59:45.662Z,97551.48
2019-03-18T17:02:52.170Z,97558.34
2019-03-18T17:05:59.228Z,97563.68
2019-03-18T17:09:08.210Z,97569.77
2019-03-18T17:12:15.640Z,97573.64
2019-03-18T17:15:22.312Z,97572.47
2019-03-18T17:18:28.803Z,97575.06
2019-03-18T17:21:36.426Z,97566.73
2019-03-18T17:24:43.671Z,97581.63
2019-03-18T17:27:50.496Z,97587.48
2019-03-18T17:30:57.223Z,97592.99
2019-03-18T17:34:04.237Z,97598.34
2019-03-18T17:37:10.961Z,97599.25
2019-03-18T17:40:17.421Z,97599.74
2019-03-18T17:43:24.555Z,97617.76
2019-03-18T17:46:31.369Z,97615.47
2019-03-18T17:49:38.124Z,97624.38
2019-03-18T17:52:44.948Z,97633.27
2019-03-18T17:55:51.697Z,97639.41
2019-03-18T17:58:58.360Z,97646.75
2019-03-18T18:02:05.125Z,97655.50
2019-03-18T18:05:12.074Z,97664.29
2019-03-18T18:08:18.831Z,97662.40
2019-03-18T18:11:25.267Z,97666.19
2019-03-18T18:14:33.601Z,97679.23
2019-03-18T18:17:40.170Z,97683.59
2019-03-18T18:20:47.944Z,97684.36
2019-03-18T18:23:54.701Z,97687.17
2019-03-18T18:27:01.362Z,97694.48
2019-03-18T18:30:08.641Z,97694.77
2019-03-18T18:33:15.713Z,97700.45
2019-03-18T18:36:25.305Z,97714.45
2019-03-18T18:39:32.333Z,97721.58
2019-03-18T18:42:39.223Z,97724.38
2019-03-18T18:45:46.125Z,97735.55
2019-03-18T18:48:52.849Z,97735.22
2019-03-18T18:52:00.404Z,97742.61
2019-03-18T18:55:08.525Z,97748.19
2019-03-18T18:58:15.775Z,97751.02
2019-03-18T19:01:23.492Z,97751.83
2019-03-18T19:04:30.358Z,97761.64
2019-03-18T19:07:37.526Z,97759.02
2019-03-18T19:10:44.286Z,97768.37
2019-03-18T19:13:51.474Z,97775.95
2019-03-18T19:16:58.766Z,97770.98
2019-03-18T19:20:06.161Z,97781.94
2019-03-18T19:23:13.219Z,97778.31
2019-03-18T19:26:20.099Z,97782.64
2019-03-18T19:29:27.228Z,97789.44
2019-03-18T19:32:33.958Z,97795.78
2019-03-18T19:35:40.762Z,97802.98
2019-03-18T19:38:47.286Z,97799.27
2019-03-18T19:41:55.164Z,97801.48
2019-03-18T19:45:02.416Z,97804.94
2019-03-18T19:48:13.878Z,97800.19
2019-03-18T19:51:24.213Z,97802.43
2019-03-18T19:54:30.874Z,97809.95
2019-03-18T19:57:37.688Z,97826.84
2019-03-18T20:00:44.441Z,97830.14
2019-03-18T20:03:51.046Z,97836.41
2019-03-18T20:06:57.965Z,97834.84
2019-03-18T20:10:06.899Z,97838.58
2019-03-18T20:13:14.739Z,97846.81
2019-03-18T20:16:21.527Z,97845.39
2019-03-18T20:19:28.590Z,97851.08
2019-03-18T20:22:35.722Z,97851.59
2019-03-18T20:25:43.517Z,97855.86
2019-03-18T20:28:50.205Z,97850.11
2019-03-18T20:31:58.436Z,97859.09
2019-03-18T20:35:06.473Z,97860.12
2019-03-18T20:38:13.535Z,97864.23
2019-03-18T20:41:20.291Z,97866.55
2019-03-18T20:44:27.114Z,97871.02
2019-03-18T20:47:37.114Z,97879.73
2019-03-18T20:50:43.483Z,97878.24
2019-03-18T20:53:49.956Z,97881.88
2019-03-18T20:56:57.151Z,97883.77
2019-03-18T21:00:06.229Z,97874.89
2019-03-18T21:03:15.035Z,97875.44
2019-03-18T21:06:21.675Z,97879.89
2019-03-18T21:09:28.257Z,97883.81
2019-03-18T21:12:35.407Z,97891.07
2019-03-18T21:15:42.528Z,97890.97
2019-03-18T21:18:49.013Z,97898.20
2019-03-18T21:21:55.273Z,97907.02
2019-03-18T21:25:04.837Z,97909.00
2019-03-18T21:28:13.549Z,97913.93
2019-03-18T21:31:22.183Z,97915.23
2019-03-18T21:34:28.767Z,97913.74
2019-03-18T21:37:35.692Z,97923.45
2019-03-18T21:40:42.321Z,97926.25
2019-03-18T21:43:49.140Z,97927.66
2019-03-18T21:46:55.534Z,97932.47
2019-03-18T21:50:01.861Z,97943.34
2019-03-18T21:53:08.829Z,97946.31
2019-03-18T21:56:15.361Z,97953.25
2019-03-18T21:59:22.379Z,97954.03
2019-03-18T22:02:29.056Z,97954.97
2019-03-18T22:05:35.743Z,97955.26
2019-03-18T22:08:42.582Z,97952.19
2019-03-18T22:11:49.812Z,97960.19
2019-03-18T22:14:56.549Z,97961.33
2019-03-18T22:18:03.491Z,97962.70
2019-03-18T22:21:10.045Z,97961.77
2019-03-18T22:24:16.626Z,97961.41
2019-03-18T22:27:23.088Z,97959.63
2019-03-18T22:30:29.546Z,97971.61
2019-03-18T22:33:36.101Z,97977.17
2019-03-18T22:36:42.510Z,97982.87
2019-03-18T22:39:48.810Z,97988.16
2019-03-18T22:42:55.534Z,97988.05
2019-03-18T22:46:01.893Z,97991.28
2019-03-18T22:49:08.864Z,97995.64
2019-03-18T22:52:15.432Z,97991.13
2019-03-18T22:55:22.550Z,97988.59
2019-03-18T22:58:28.698Z,97996.37
2019-03-18T23:01:35.797Z,97995.09
2019-03-18T23:04:42.720Z,97993.34
2019-03-18T23:07:49.073Z,97991.09
2019-03-18T23:10:55.667Z,97998.94
2019-03-18T23:14:02.186Z,98002.93
2019-03-18T23:17:09.147Z,98000.97
2019-03-18T23:20:16.046Z,97998.45
2019-03-18T23:23:22.627Z,98002.72
2019-03-18T23:26:29.207Z,98004.23
2019-03-18T23:29:35.887Z,98004.29
2019-03-18T23:32:42.738Z,98007.98
2019-03-18T23:35:49.465Z,98007.09
2019-03-18T23:38:56.096Z,98007.61
2019-03-18T23:42:03.198Z,98008.80
2019-03-18T23:45:09.754Z,98009.57
2019-03-18T23:48:16.279Z,98008.21
2019-03-18T23:51:23.554Z,98011.88
2019-03-18T23:54:30.684Z,98014.09
2019-03-18T23:57:37.261Z,98017.13
